Time;durP1;ratioP1;P1;durP2;ratioP2;P2;SDS_P1;SDS_P2;PMS_P1;PMS_P2;Temp;Humidity;BMP_temperature;BMP_pressure;BME280_temperature;BME280_humidity;BME280_pressure;Samples;Min_cycle;Max_cycle;Signal;HPM_P1;HPM_P2
2023/04/26 00:00:08;;;;;;;11.85;3.72;;;;;;;;;;5128668;27;20051;-73
2023/04/26 00:02:42;;;;;;;18.17;3.90;;;;;;;;;;5127378;27;20390;-71
2023/04/26 00:05:21;;;;;;;12.38;4.50;;;;;;;;;;5128208;27;20051;-72
2023/04/26 00:07:55;;;;;;;14.65;4.50;;;;;;;;;;5128501;27;20043;-73
2023/04/26 00:10:28;;;;;;;9.70;4.07;;;;;;;;;;5126880;27;20047;-73
2023/04/26 00:13:02;;;;;;;14.95;5.28;;;;;;;;;;5128329;27;20050;-73
2023/04/26 00:15:36;;;;;;;22.38;4.25;;;;;;;;;;5127837;27;20074;-72
2023/04/26 00:18:07;;;;;;;11.75;4.70;;;;;;;;;;5128334;27;20521;-73
2023/04/26 00:20:39;;;;;;;16.35;4.88;;;;;;;;;;5128448;27;20043;-73
2023/04/26 00:23:12;;;;;;;14.57;5.20;;;;;;;;;;5128732;27;20402;-73
2023/04/26 00:25:43;;;;;;;9.48;4.47;;;;;;;;;;5128494;27;20421;-72
2023/04/26 00:28:15;;;;;;;13.65;5.78;;;;;;;;;;5127358;27;20043;-75
2023/04/26 00:30:50;;;;;;;17.50;6.13;;;;;;;;;;5127187;27;20069;-73
2023/04/26 00:33:22;;;;;;;15.75;5.43;;;;;;;;;;5128191;27;20043;-72
2023/04/26 00:35:53;;;;;;;13.27;5.03;;;;;;;;;;5128270;27;20055;-73
2023/04/26 00:38:24;;;;;;;12.93;5.22;;;;;;;;;;5127819;27;20047;-72
2023/04/26 00:40:59;;;;;;;13.60;5.85;;;;;;;;;;5127470;27;20059;-74
2023/04/26 00:43:32;;;;;;;12.57;4.75;;;;;;;;;;5127896;27;20047;-70
2023/04/26 00:46:03;;;;;;;10.45;5.20;;;;;;;;;;5126418;27;20047;-77
2023/04/26 00:48:35;;;;;;;12.38;4.95;;;;;;;;;;5128185;27;20405;-72
2023/04/26 00:51:07;;;;;;;14.45;5.60;;;;;;;;;;5125406;27;20047;-72
2023/04/26 00:53:38;;;;;;;13.20;5.03;;;;;;;;;;5128088;27;20512;-73
2023/04/26 00:56:10;;;;;;;12.13;5.15;;;;;;;;;;5127833;27;20501;-72
2023/04/26 00:58:41;;;;;;;10.13;3.88;;;;;;;;;;5127444;27;20552;-74
2023/04/26 01:01:14;;;;;;;11.60;3.90;;;;;;;;;;5127412;27;20532;-75
2023/04/26 01:03:46;;;;;;;10.48;4.20;;;;;;;;;;5126251;27;20050;-73
2023/04/26 01:06:20;;;;;;;8.02;4.45;;;;;;;;;;5125822;27;20050;-73
2023/04/26 01:08:56;;;;;;;10.43;3.70;;;;;;;;;;5124931;27;20109;-72
2023/04/26 01:11:32;;;;;;;8.60;3.72;;;;;;;;;;5127238;27;20410;-71
2023/04/26 01:14:05;;;;;;;6.40;2.90;;;;;;;;;;5126840;27;20046;-71
2023/04/26 01:16:37;;;;;;;8.23;2.63;;;;;;;;;;5126446;27;20054;-73
2023/04/26 01:19:12;;;;;;;9.15;2.70;;;;;;;;;;5126786;27;20058;-73
2023/04/26 01:21:44;;;;;;;7.35;3.22;;;;;;;;;;5126950;27;20062;-73
2023/04/26 01:24:15;;;;;;;5.38;2.97;;;;;;;;;;5126790;27;20043;-71
2023/04/26 01:26:47;;;;;;;8.10;2.53;;;;;;;;;;5126924;27;20518;-72
2023/04/26 01:29:19;;;;;;;8.57;2.47;;;;;;;;;;5126975;27;20047;-72
2023/04/26 01:31:53;;;;;;;8.77;2.78;;;;;;;;;;5126467;27;20499;-72
2023/04/26 01:34:24;;;;;;;9.07;2.63;;;;;;;;;;5124685;27;20046;-73
2023/04/26 01:36:55;;;;;;;7.32;2.38;;;;;;;;;;5125692;27;20058;-72
2023/04/26 01:39:28;;;;;;;4.28;2.80;;;;;;;;;;5126156;27;20043;-72
2023/04/26 01:41:59;;;;;;;5.65;2.35;;;;;;;;;;5126895;27;20419;-72
2023/04/26 01:44:33;;;;;;;8.80;2.15;;;;;;;;;;5126331;27;20046;-72
2023/04/26 01:47:04;;;;;;;7.60;2.83;;;;;;;;;;5127041;27;20524;-74
2023/04/26 01:49:35;;;;;;;4.28;2.08;;;;;;;;;;5127016;27;20058;-73
2023/04/26 01:52:06;;;;;;;2.55;1.42;;;;;;;;;;5123846;27;20596;-72
2023/04/26 01:54:37;;;;;;;4.88;1.65;;;;;;;;;;5124293;27;20386;-73
2023/04/26 01:57:07;;;;;;;3.33;1.45;;;;;;;;;;5107497;27;20062;-72
2023/04/26 01:59:38;;;;;;;3.67;1.67;;;;;;;;;;5124942;27;20043;-72
2023/04/26 02:02:11;;;;;;;4.03;1.50;;;;;;;;;;5126799;27;20039;-73
2023/04/26 02:04:42;;;;;;;2.13;1.50;;;;;;;;;;5126640;27;20050;-72
2023/04/26 02:07:13;;;;;;;3.22;1.58;;;;;;;;;;5126208;27;20378;-73
2023/04/26 02:09:46;;;;;;;5.05;1.75;;;;;;;;;;5132976;27;20055;-72
2023/04/26 02:12:17;;;;;;;3.72;2.03;;;;;;;;;;5124166;27;20054;-73
2023/04/26 02:14:48;;;;;;;3.17;1.73;;;;;;;;;;5124899;27;20039;-73
2023/04/26 02:17:20;;;;;;;5.80;2.28;;;;;;;;;;5126558;27;20048;-73
2023/04/26 02:19:50;;;;;;;3.72;1.63;;;;;;;;;;5124686;27;20055;-73
2023/04/26 02:22:23;;;;;;;2.78;1.75;;;;;;;;;;5124093;27;20066;-72
2023/04/26 02:24:54;;;;;;;2.28;1.30;;;;;;;;;;5126250;27;20356;-72
2023/04/26 02:27:27;;;;;;;5.72;1.67;;;;;;;;;;5125938;27;20517;-72
2023/04/26 02:30:01;;;;;;;3.88;1.70;;;;;;;;;;5126079;27;20516;-73
2023/04/26 02:32:32;;;;;;;4.35;1.77;;;;;;;;;;5124109;27;20055;-73
2023/04/26 02:35:04;;;;;;;3.35;1.40;;;;;;;;;;5126261;27;20046;-73
2023/04/26 02:37:34;;;;;;;2.88;1.38;;;;;;;;;;5126191;27;20520;-73
2023/04/26 02:40:04;;;;;;;1.73;1.20;;;;;;;;;;5126035;27;20417;-73
2023/04/26 02:42:37;;;;;;;1.33;1.02;;;;;;;;;;5124368;27;20043;-73
2023/04/26 02:45:08;;;;;;;2.30;1.30;;;;;;;;;;5124396;27;20058;-72
2023/04/26 02:47:39;;;;;;;7.10;1.60;;;;;;;;;;5124122;28;20826;-73
2023/04/26 02:50:09;;;;;;;7.78;1.83;;;;;;;;;;5126098;28;20036;-73
2023/04/26 02:52:40;;;;;;;3.38;1.33;;;;;;;;;;5126332;28;20035;-72
2023/04/26 02:55:10;;;;;;;4.25;1.45;;;;;;;;;;5123912;28;20051;-72
2023/04/26 02:57:42;;;;;;;2.20;1.33;;;;;;;;;;5125391;28;20062;-73
2023/04/26 03:00:13;;;;;;;4.07;1.75;;;;;;;;;;5123720;28;20059;-73
2023/04/26 03:02:43;;;;;;;2.13;1.20;;;;;;;;;;5124243;28;20040;-72
2023/04/26 03:05:14;;;;;;;5.32;1.70;;;;;;;;;;5129208;27;20043;-72
2023/04/26 03:07:45;;;;;;;3.40;1.50;;;;;;;;;;5129890;27;20054;-72
2023/04/26 03:10:16;;;;;;;4.13;1.50;;;;;;;;;;5128429;27;20047;-72
2023/04/26 03:12:46;;;;;;;3.13;1.60;;;;;;;;;;5129405;27;20048;-73
2023/04/26 03:15:16;;;;;;;2.40;1.73;;;;;;;;;;5128255;27;20047;-75
2023/04/26 03:17:47;;;;;;;3.45;1.75;;;;;;;;;;5127563;27;20062;-72
2023/04/26 03:20:18;;;;;;;3.17;1.92;;;;;;;;;;5127799;27;20067;-72
2023/04/26 03:22:49;;;;;;;3.22;1.85;;;;;;;;;;5127301;27;20051;-73
2023/04/26 03:25:19;;;;;;;3.80;2.00;;;;;;;;;;5130001;27;20050;-73
2023/04/26 03:27:50;;;;;;;4.28;2.42;;;;;;;;;;5127962;27;20047;-72
2023/04/26 03:30:20;;;;;;;6.22;2.17;;;;;;;;;;5129304;27;20543;-72
2023/04/26 03:32:51;;;;;;;3.45;1.73;;;;;;;;;;5110645;27;20136;-72
2023/04/26 03:35:21;;;;;;;4.15;1.98;;;;;;;;;;5129137;27;20050;-72
2023/04/26 03:37:51;;;;;;;2.75;1.77;;;;;;;;;;5127856;27;20051;-71
2023/04/26 03:40:29;;;;;;;3.67;1.40;;;;;;;;;;5128035;27;20055;-73
2023/04/26 03:43:00;;;;;;;5.72;1.60;;;;;;;;;;5127295;27;20043;-73
2023/04/26 03:45:30;;;;;;;3.05;1.70;;;;;;;;;;5129222;27;20039;-72
2023/04/26 03:48:00;;;;;;;4.82;1.77;;;;;;;;;;5129422;27;20071;-73
2023/04/26 03:50:32;;;;;;;4.07;1.85;;;;;;;;;;5129307;27;20051;-73
2023/04/26 03:53:03;;;;;;;2.45;1.70;;;;;;;;;;5129139;27;20055;-72
2023/04/26 03:55:33;;;;;;;5.00;2.20;;;;;;;;;;5129467;27;20059;-73
2023/04/26 03:58:06;;;;;;;4.43;2.20;;;;;;;;;;5110305;27;20054;-73
2023/04/26 04:00:39;;;;;;;7.80;2.50;;;;;;;;;;5127484;27;20043;-72
2023/04/26 04:03:10;;;;;;;4.10;2.10;;;;;;;;;;5126983;27;20047;-72
2023/04/26 04:05:41;;;;;;;5.13;2.17;;;;;;;;;;5126947;27;20501;-72
2023/04/26 04:08:10;;;;;;;4.72;1.95;;;;;;;;;;5127074;27;20417;-73
2023/04/26 04:10:41;;;;;;;5.28;3.10;;;;;;;;;;5126940;27;20062;-73
2023/04/26 04:13:12;;;;;;;4.18;1.95;;;;;;;;;;5127302;27;20517;-73
2023/04/26 04:15:42;;;;;;;8.43;2.58;;;;;;;;;;5126337;27;20062;-72
2023/04/26 04:18:12;;;;;;;6.63;2.47;;;;;;;;;;5126892;27;20054;-72
2023/04/26 04:20:42;;;;;;;5.47;2.80;;;;;;;;;;5109683;27;20058;-72
2023/04/26 04:23:13;;;;;;;4.57;3.22;;;;;;;;;;5128133;27;20050;-72
2023/04/26 04:25:44;;;;;;;9.38;3.83;;;;;;;;;;5126587;27;20074;-72
2023/04/26 04:28:15;;;;;;;5.00;3.22;;;;;;;;;;5126819;27;20051;-72
2023/04/26 04:30:46;;;;;;;4.78;3.30;;;;;;;;;;5126832;27;20055;-72
2023/04/26 04:33:17;;;;;;;4.80;3.22;;;;;;;;;;5126249;27;20054;-73
2023/04/26 04:35:48;;;;;;;7.43;3.60;;;;;;;;;;5126867;27;20051;-72
2023/04/26 04:38:19;;;;;;;5.45;3.35;;;;;;;;;;5125856;27;20061;-73
2023/04/26 04:40:49;;;;;;;5.50;3.13;;;;;;;;;;5126320;27;20070;-73
2023/04/26 04:43:20;;;;;;;6.45;3.10;;;;;;;;;;5126103;27;20050;-72
2023/04/26 04:45:51;;;;;;;4.22;3.25;;;;;;;;;;5125829;27;20533;-73
2023/04/26 04:48:21;;;;;;;7.03;2.88;;;;;;;;;;5126158;27;20047;-73
2023/04/26 04:50:51;;;;;;;7.35;2.67;;;;;;;;;;5126233;27;20051;-73
2023/04/26 04:53:21;;;;;;;7.53;2.83;;;;;;;;;;5126469;27;20051;-73
2023/04/26 04:55:52;;;;;;;6.10;3.30;;;;;;;;;;5125903;27;20047;-72
2023/04/26 04:58:22;;;;;;;5.05;2.58;;;;;;;;;;5127755;27;20055;-72
2023/04/26 05:00:54;;;;;;;6.80;3.45;;;;;;;;;;5125170;27;20055;-72
2023/04/26 05:03:28;;;;;;;6.95;2.92;;;;;;;;;;5128031;27;20054;-74
2023/04/26 05:06:00;;;;;;;5.55;3.40;;;;;;;;;;5125814;27;20062;-73
2023/04/26 05:08:30;;;;;;;4.93;2.67;;;;;;;;;;5125842;27;20047;-73
2023/04/26 05:11:03;;;;;;;6.20;2.50;;;;;;;;;;5125556;27;20058;-72
2023/04/26 05:13:34;;;;;;;6.47;2.80;;;;;;;;;;5127390;27;20047;-73
2023/04/26 05:16:07;;;;;;;5.40;2.97;;;;;;;;;;5125712;27;20081;-73
2023/04/26 05:18:39;;;;;;;3.70;2.45;;;;;;;;;;5125727;27;20062;-73
2023/04/26 05:21:09;;;;;;;7.25;2.22;;;;;;;;;;5125344;27;20043;-72
2023/04/26 05:23:40;;;;;;;3.80;2.10;;;;;;;;;;5126078;27;20054;-73
2023/04/26 05:26:15;;;;;;;5.15;2.40;;;;;;;;;;5108613;27;20077;-73
2023/04/26 05:29:13;;;;;;;4.32;2.47;;;;;;;;;;5124957;27;20054;-72
2023/04/26 05:31:46;;;;;;;10.98;2.85;;;;;;;;;;5130462;27;20051;-73
2023/04/26 05:34:36;;;;;;;4.55;2.47;;;;;;;;;;5127357;27;20051;-72
2023/04/26 05:37:09;;;;;;;5.60;2.97;;;;;;;;;;5125609;27;20058;-72
2023/04/26 05:39:40;;;;;;;9.95;2.38;;;;;;;;;;5125100;27;20058;-73
2023/04/26 05:42:09;;;;;;;4.60;2.40;;;;;;;;;;5127027;27;20438;-72
2023/04/26 05:44:41;;;;;;;6.07;2.17;;;;;;;;;;5124982;27;20043;-72
2023/04/26 05:47:13;;;;;;;5.78;2.70;;;;;;;;;;5125464;27;20505;-73
2023/04/26 05:49:43;;;;;;;4.65;2.53;;;;;;;;;;5125158;27;20058;-72
2023/04/26 05:52:13;;;;;;;5.35;2.25;;;;;;;;;;5125290;27;20396;-73
2023/04/26 05:54:43;;;;;;;6.30;2.42;;;;;;;;;;5124740;27;20047;-73
2023/04/26 05:57:14;;;;;;;4.93;2.70;;;;;;;;;;5125067;27;20501;-72
2023/04/26 05:59:46;;;;;;;6.13;2.80;;;;;;;;;;5125066;27;20528;-73
2023/04/26 06:02:17;;;;;;;4.60;2.83;;;;;;;;;;5124396;27;20058;-73
2023/04/26 06:04:47;;;;;;;5.45;2.95;;;;;;;;;;5124426;27;20055;-73
2023/04/26 06:07:18;;;;;;;3.83;2.33;;;;;;;;;;5124394;27;20141;-73
2023/04/26 06:09:49;;;;;;;5.75;2.45;;;;;;;;;;5126255;27;20463;-73
2023/04/26 06:12:19;;;;;;;3.78;2.40;;;;;;;;;;5124899;27;20061;-72
2023/04/26 06:14:51;;;;;;;4.90;2.88;;;;;;;;;;5124531;27;20043;-74
2023/04/26 06:17:25;;;;;;;5.75;2.20;;;;;;;;;;5124222;27;20055;-73
2023/04/26 06:19:56;;;;;;;5.97;2.53;;;;;;;;;;5123970;27;20124;-73
2023/04/26 06:22:27;;;;;;;6.78;2.88;;;;;;;;;;5125731;27;20047;-72
2023/04/26 06:24:59;;;;;;;4.63;2.60;;;;;;;;;;5124535;27;20062;-73
2023/04/26 06:27:29;;;;;;;6.40;2.28;;;;;;;;;;5124733;27;20055;-72
2023/04/26 06:30:01;;;;;;;5.22;2.55;;;;;;;;;;5124150;27;20055;-73
2023/04/26 06:32:33;;;;;;;6.38;2.65;;;;;;;;;;5124328;27;20615;-74
2023/04/26 06:35:05;;;;;;;4.50;2.90;;;;;;;;;;5125870;27;20042;-74
2023/04/26 06:37:38;;;;;;;5.53;3.00;;;;;;;;;;5123934;27;20051;-73
2023/04/26 06:40:10;;;;;;;12.23;2.72;;;;;;;;;;5123408;27;20051;-74
2023/04/26 06:42:41;;;;;;;27.83;3.47;;;;;;;;;;5124139;27;20055;-74
2023/04/26 06:45:25;;;;;;;4.57;2.33;;;;;;;;;;5124186;27;20055;-75
2023/04/26 06:47:56;;;;;;;6.40;3.13;;;;;;;;;;5125128;28;20055;-75
2023/04/26 06:50:28;;;;;;;4.80;2.20;;;;;;;;;;5124098;28;20051;-75
2023/04/26 06:52:59;;;;;;;4.68;2.58;;;;;;;;;;5123553;28;20043;-75
2023/04/26 06:55:29;;;;;;;7.25;2.35;;;;;;;;;;5124554;27;20054;-75
2023/04/26 06:58:01;;;;;;;8.38;2.28;;;;;;;;;;5125548;28;20494;-74
2023/04/26 07:00:32;;;;;;;11.93;2.53;;;;;;;;;;5125251;28;20051;-74
2023/04/26 07:03:03;;;;;;;5.20;2.40;;;;;;;;;;5125968;28;20390;-74
2023/04/26 07:05:34;;;;;;;8.82;2.50;;;;;;;;;;5126294;28;20536;-74
2023/04/26 07:08:04;;;;;;;3.97;2.45;;;;;;;;;;5124418;28;20517;-74
2023/04/26 07:10:35;;;;;;;7.95;2.60;;;;;;;;;;5125405;28;20039;-75
2023/04/26 07:13:06;;;;;;;5.10;2.38;;;;;;;;;;5125364;28;20058;-73
2023/04/26 07:15:37;;;;;;;5.00;2.40;;;;;;;;;;5125510;28;20047;-74
2023/04/26 07:18:07;;;;;;;7.63;2.00;;;;;;;;;;5125544;28;20058;-74
2023/04/26 07:20:38;;;;;;;3.65;2.10;;;;;;;;;;5125170;28;20051;-75
2023/04/26 07:23:08;;;;;;;10.68;3.15;;;;;;;;;;5125707;28;20047;-72
2023/04/26 07:25:39;;;;;;;6.57;3.00;;;;;;;;;;5125704;28;20039;-72
2023/04/26 07:28:13;;;;;;;3.70;2.15;;;;;;;;;;5124786;28;20051;-72
2023/04/26 07:30:43;;;;;;;7.88;2.30;;;;;;;;;;5125306;28;20050;-72
2023/04/26 07:33:15;;;;;;;3.92;1.75;;;;;;;;;;5125759;28;20401;-73
2023/04/26 07:35:57;;;;;;;5.65;2.10;;;;;;;;;;5125374;28;20043;-73
2023/04/26 07:38:29;;;;;;;8.68;2.45;;;;;;;;;;5125646;28;20046;-72
2023/04/26 07:41:00;;;;;;;3.78;1.83;;;;;;;;;;5125412;28;20051;-73
2023/04/26 07:43:31;;;;;;;3.30;2.20;;;;;;;;;;5123636;28;20066;-72
2023/04/26 07:46:03;;;;;;;6.45;2.17;;;;;;;;;;5125561;28;20520;-72
2023/04/26 07:48:33;;;;;;;4.30;2.05;;;;;;;;;;5125404;28;20051;-72
2023/04/26 07:51:10;;;;;;;4.43;2.08;;;;;;;;;;5125944;27;20418;-73
2023/04/26 07:53:42;;;;;;;3.38;1.73;;;;;;;;;;5127596;27;20415;-73
2023/04/26 07:56:14;;;;;;;5.30;2.58;;;;;;;;;;5128751;27;20035;-73
2023/04/26 07:58:44;;;;;;;4.22;2.25;;;;;;;;;;5128609;27;20047;-73
2023/04/26 08:01:13;;;;;;;7.75;2.38;;;;;;;;;;5126994;27;20047;-73
2023/04/26 08:03:46;;;;;;;5.10;2.00;;;;;;;;;;5110020;27;20055;-73
2023/04/26 08:06:17;;;;;;;3.35;2.17;;;;;;;;;;5128874;27;20043;-72
2023/04/26 08:08:49;;;;;;;8.38;2.35;;;;;;;;;;5128652;27;20528;-72
2023/04/26 08:11:20;;;;;;;7.90;2.17;;;;;;;;;;5128630;27;20049;-72
2023/04/26 08:13:50;;;;;;;5.38;2.17;;;;;;;;;;5129008;27;20398;-73
2023/04/26 08:16:22;;;;;;;6.18;2.58;;;;;;;;;;5128944;27;20050;-74
2023/04/26 08:18:53;;;;;;;4.07;2.22;;;;;;;;;;5128644;27;20105;-73
2023/04/26 08:21:24;;;;;;;5.78;2.53;;;;;;;;;;5128492;27;20054;-72
2023/04/26 08:23:54;;;;;;;6.25;2.35;;;;;;;;;;5128885;27;20055;-72
2023/04/26 08:26:26;;;;;;;9.98;2.85;;;;;;;;;;5128548;27;20401;-73
2023/04/26 08:28:56;;;;;;;5.45;2.42;;;;;;;;;;5128379;27;20050;-73
2023/04/26 08:31:26;;;;;;;5.60;2.40;;;;;;;;;;5128010;27;20050;-73
2023/04/26 08:33:56;;;;;;;5.72;2.70;;;;;;;;;;5127918;27;20039;-72
2023/04/26 08:36:26;;;;;;;5.45;2.75;;;;;;;;;;5128303;27;20043;-72
2023/04/26 08:38:57;;;;;;;5.15;2.47;;;;;;;;;;5128128;27;20047;-72
2023/04/26 08:41:29;;;;;;;5.10;2.58;;;;;;;;;;5126447;27;20063;-73
2023/04/26 08:44:00;;;;;;;4.00;2.47;;;;;;;;;;5127921;27;20039;-73
2023/04/26 08:46:40;;;;;;;6.22;2.47;;;;;;;;;;5127942;27;20505;-72
2023/04/26 08:49:36;;;;;;;5.15;2.83;;;;;;;;;;5128118;27;20058;-73
2023/04/26 08:52:10;;;;;;;4.57;2.70;;;;;;;;;;5120077;27;20055;-72
2023/04/26 08:54:41;;;;;;;5.65;2.58;;;;;;;;;;5126296;27;20061;-73
2023/04/26 08:57:11;;;;;;;3.65;2.42;;;;;;;;;;5127379;27;20043;-73
2023/04/26 08:59:43;;;;;;;3.33;1.90;;;;;;;;;;5126436;27;20050;-73
2023/04/26 09:02:18;;;;;;;4.40;2.40;;;;;;;;;;5125530;27;20058;-73
2023/04/26 09:04:50;;;;;;;6.32;2.83;;;;;;;;;;5128186;27;20051;-71
2023/04/26 09:07:26;;;;;;;3.90;2.40;;;;;;;;;;5127735;27;20968;-73
2023/04/26 09:09:58;;;;;;;3.00;2.10;;;;;;;;;;5127571;27;20043;-73
2023/04/26 09:12:29;;;;;;;5.55;2.40;;;;;;;;;;5127826;27;20109;-71
2023/04/26 09:15:00;;;;;;;2.60;1.98;;;;;;;;;;5127316;27;20054;-73
2023/04/26 09:17:36;;;;;;;9.55;2.60;;;;;;;;;;5127789;27;20054;-72
2023/04/26 09:20:22;;;;;;;7.45;2.42;;;;;;;;;;5127119;27;20043;-73
2023/04/26 09:23:04;;;;;;;5.13;1.83;;;;;;;;;;5127563;27;20058;-72
2023/04/26 09:25:35;;;;;;;4.38;2.08;;;;;;;;;;5127150;27;20061;-73
2023/04/26 09:28:22;;;;;;;2.95;1.50;;;;;;;;;;5125625;27;20054;-74
2023/04/26 09:30:53;;;;;;;2.70;1.52;;;;;;;;;;5127335;27;20584;-73
2023/04/26 09:33:23;;;;;;;4.55;1.85;;;;;;;;;;5127596;27;20406;-74
2023/04/26 09:35:54;;;;;;;3.92;1.92;;;;;;;;;;5127377;27;20051;-74
2023/04/26 09:38:24;;;;;;;2.53;1.48;;;;;;;;;;5126500;27;20584;-75
2023/04/26 09:40:58;;;;;;;8.70;2.00;;;;;;;;;;5126936;27;20055;-74
2023/04/26 09:43:37;;;;;;;5.53;1.65;;;;;;;;;;5126724;27;20047;-74
2023/04/26 09:46:07;;;;;;;4.63;1.73;;;;;;;;;;5125377;27;20043;-73
2023/04/26 09:48:37;;;;;;;4.50;1.85;;;;;;;;;;5126590;27;20047;-74
2023/04/26 09:51:13;;;;;;;8.45;2.10;;;;;;;;;;5108521;27;20055;-74
2023/04/26 09:53:50;;;;;;;4.90;1.60;;;;;;;;;;5126461;27;20039;-75
2023/04/26 09:56:21;;;;;;;3.53;1.40;;;;;;;;;;5126722;27;20043;-74
2023/04/26 09:58:58;;;;;;;6.57;1.40;;;;;;;;;;5126377;27;20421;-75
2023/04/26 10:01:29;;;;;;;5.15;1.50;;;;;;;;;;5127049;27;20055;-74
2023/04/26 10:04:03;;;;;;;2.38;1.40;;;;;;;;;;5126511;27;20051;-75
2023/04/26 10:06:34;;;;;;;4.63;1.65;;;;;;;;;;5126917;27;20049;-71
2023/04/26 10:09:08;;;;;;;2.75;1.30;;;;;;;;;;5124326;27;20047;-74
2023/04/26 10:11:39;;;;;;;6.13;1.70;;;;;;;;;;5111266;27;20070;-73
2023/04/26 10:14:09;;;;;;;11.30;3.42;;;;;;;;;;5103480;28;20043;-73
2023/04/26 10:16:42;;;;;;;2.33;1.45;;;;;;;;;;5105896;28;20063;-76
2023/04/26 10:19:13;;;;;;;4.03;1.92;;;;;;;;;;5105405;28;20047;-72
2023/04/26 10:21:45;;;;;;;3.85;1.90;;;;;;;;;;5105730;28;20051;-72
2023/04/26 10:24:16;;;;;;;9.18;7.07;;;;;;;;;;5105338;28;20534;-73
2023/04/26 10:26:48;;;;;;;2.50;1.50;;;;;;;;;;5104520;28;20059;-73
2023/04/26 10:29:21;;;;;;;3.60;1.60;;;;;;;;;;5105516;28;20063;-75
2023/04/26 10:32:00;;;;;;;3.63;1.70;;;;;;;;;;5105119;28;20050;-74
2023/04/26 10:34:35;;;;;;;2.53;1.30;;;;;;;;;;5104142;28;20062;-73
2023/04/26 10:37:08;;;;;;;3.15;1.67;;;;;;;;;;5105492;28;20051;-72
2023/04/26 10:39:39;;;;;;;6.03;1.50;;;;;;;;;;5105421;28;20051;-74
2023/04/26 10:42:26;;;;;;;7.70;2.95;;;;;;;;;;5104891;28;20060;-72
2023/04/26 10:45:01;;;;;;;4.90;2.00;;;;;;;;;;5104962;28;20047;-73
2023/04/26 10:47:35;;;;;;;3.13;1.27;;;;;;;;;;5105539;28;20058;-73
2023/04/26 10:50:12;;;;;;;3.75;1.60;;;;;;;;;;5104696;28;20052;-72
2023/04/26 10:53:00;;;;;;;4.63;1.88;;;;;;;;;;5105398;28;20059;-72
2023/04/26 10:55:41;;;;;;;2.75;1.40;;;;;;;;;;5105702;28;20048;-74
2023/04/26 10:58:31;;;;;;;1.83;1.30;;;;;;;;;;5105141;28;20055;-73
2023/04/26 11:01:17;;;;;;;2.75;1.40;;;;;;;;;;5103165;28;20047;-75
2023/04/26 11:04:11;;;;;;;1.92;1.40;;;;;;;;;;5104983;28;20047;-74
2023/04/26 11:06:56;;;;;;;3.58;1.05;;;;;;;;;;5098926;28;20817;-74
2023/04/26 11:09:47;;;;;;;1.33;1.15;;;;;;;;;;5104961;28;20048;-74
2023/04/26 11:12:17;;;;;;;1.98;1.60;;;;;;;;;;5105986;28;20051;-74
2023/04/26 11:14:47;;;;;;;6.40;2.22;;;;;;;;;;5104988;28;20567;-73
2023/04/26 11:17:17;;;;;;;2.92;1.85;;;;;;;;;;5104966;28;20114;-72
2023/04/26 11:19:48;;;;;;;3.47;1.80;;;;;;;;;;5104636;28;20127;-74
2023/04/26 11:22:24;;;;;;;4.18;2.40;;;;;;;;;;5104646;28;20052;-75
2023/04/26 11:24:55;;;;;;;6.53;3.88;;;;;;;;;;5103929;28;20524;-72
2023/04/26 11:27:27;;;;;;;4.82;2.20;;;;;;;;;;5109326;28;20498;-75
2023/04/26 11:29:58;;;;;;;3.72;2.13;;;;;;;;;;5109029;28;20062;-74
2023/04/26 11:32:28;;;;;;;3.88;2.50;;;;;;;;;;5109072;28;20047;-75
2023/04/26 11:35:00;;;;;;;3.60;1.85;;;;;;;;;;5108696;28;20054;-75
2023/04/26 11:37:30;;;;;;;3.03;2.17;;;;;;;;;;5108940;28;20626;-75
2023/04/26 11:40:01;;;;;;;4.05;2.47;;;;;;;;;;5107982;28;20044;-74
2023/04/26 11:42:32;;;;;;;2.42;1.60;;;;;;;;;;5108971;28;20066;-73
2023/04/26 11:45:05;;;;;;;2.38;1.50;;;;;;;;;;5108632;28;20390;-73
2023/04/26 11:47:36;;;;;;;2.50;1.50;;;;;;;;;;5108363;28;20044;-74
2023/04/26 11:50:07;;;;;;;3.20;1.60;;;;;;;;;;5108492;28;20075;-72
2023/04/26 11:52:39;;;;;;;7.22;2.17;;;;;;;;;;5108112;28;20498;-74
2023/04/26 11:55:10;;;;;;;2.00;1.60;;;;;;;;;;5109043;28;20043;-75
2023/04/26 11:57:40;;;;;;;3.75;1.67;;;;;;;;;;5108752;28;20052;-73
2023/04/26 12:00:15;;;;;;;2.47;1.70;;;;;;;;;;5108675;28;20043;-72
2023/04/26 12:02:49;;;;;;;3.08;1.42;;;;;;;;;;5107994;28;20050;-75
2023/04/26 12:05:31;;;;;;;2.83;1.60;;;;;;;;;;5107871;28;20056;-72
2023/04/26 12:08:03;;;;;;;9.20;1.55;;;;;;;;;;5107989;28;20383;-73
2023/04/26 12:10:37;;;;;;;1.80;1.42;;;;;;;;;;5108225;28;20043;-72
2023/04/26 12:13:08;;;;;;;4.30;1.63;;;;;;;;;;5107004;28;20050;-73
2023/04/26 12:15:39;;;;;;;2.65;2.10;;;;;;;;;;5108429;28;20051;-74
2023/04/26 12:18:11;;;;;;;2.28;1.65;;;;;;;;;;5106303;28;20517;-72
2023/04/26 12:20:43;;;;;;;2.92;2.13;;;;;;;;;;5107645;28;20043;-73
2023/04/26 12:23:15;;;;;;;3.67;2.13;;;;;;;;;;5107831;28;20058;-73
2023/04/26 12:26:02;;;;;;;4.45;2.20;;;;;;;;;;5107992;28;20051;-72
2023/04/26 12:28:34;;;;;;;2.60;1.70;;;;;;;;;;5107944;28;20047;-74
2023/04/26 12:31:04;;;;;;;7.15;2.00;;;;;;;;;;5107745;28;20047;-73
2023/04/26 12:33:35;;;;;;;5.32;2.75;;;;;;;;;;5108401;28;20047;-73
2023/04/26 12:36:08;;;;;;;3.65;2.00;;;;;;;;;;5107570;28;20051;-74
2023/04/26 12:38:39;;;;;;;3.40;1.77;;;;;;;;;;5107228;28;20059;-73
2023/04/26 12:41:09;;;;;;;5.35;2.05;;;;;;;;;;5107603;28;20147;-75
2023/04/26 12:43:40;;;;;;;2.63;1.85;;;;;;;;;;5107143;28;20078;-74
2023/04/26 12:46:11;;;;;;;2.13;1.70;;;;;;;;;;5107415;28;20046;-74
2023/04/26 12:48:41;;;;;;;5.38;1.70;;;;;;;;;;5107527;28;20521;-77
2023/04/26 12:51:11;;;;;;;3.30;2.33;;;;;;;;;;5107311;28;20043;-73
2023/04/26 12:53:41;;;;;;;1.98;1.33;;;;;;;;;;5107395;28;20031;-73
2023/04/26 12:56:11;;;;;;;4.28;1.88;;;;;;;;;;5107069;28;20051;-74
2023/04/26 12:58:42;;;;;;;3.22;2.03;;;;;;;;;;5107252;28;20054;-73
2023/04/26 13:01:15;;;;;;;4.22;1.50;;;;;;;;;;5107252;28;20402;-76
2023/04/26 13:03:45;;;;;;;3.15;2.05;;;;;;;;;;5105964;28;20074;-74
2023/04/26 13:06:16;;;;;;;5.25;3.20;;;;;;;;;;5107928;28;20101;-75
2023/04/26 13:08:46;;;;;;;2.45;1.83;;;;;;;;;;5106685;28;20047;-74
2023/04/26 13:11:18;;;;;;;2.83;1.88;;;;;;;;;;5106878;28;20048;-75
2023/04/26 13:13:48;;;;;;;1.90;1.60;;;;;;;;;;5106801;28;20047;-74
2023/04/26 13:16:18;;;;;;;4.60;1.90;;;;;;;;;;5106833;28;20048;-75
2023/04/26 13:18:50;;;;;;;5.32;1.40;;;;;;;;;;5106532;28;20048;-74
2023/04/26 13:21:27;;;;;;;8.27;1.60;;;;;;;;;;5106789;28;20043;-73
2023/04/26 13:23:57;;;;;;;3.60;1.60;;;;;;;;;;5106958;28;20044;-75
2023/04/26 13:26:27;;;;;;;6.10;2.22;;;;;;;;;;5106337;28;20039;-75
2023/04/26 13:28:58;;;;;;;10.50;1.92;;;;;;;;;;5105927;28;20058;-75
2023/04/26 13:31:28;;;;;;;2.67;1.30;;;;;;;;;;5106079;28;20529;-76
2023/04/26 13:33:59;;;;;;;2.95;1.67;;;;;;;;;;5106615;28;20408;-75
2023/04/26 13:36:31;;;;;;;3.97;1.90;;;;;;;;;;5106315;28;20044;-75
2023/04/26 13:39:03;;;;;;;5.22;1.23;;;;;;;;;;5106858;28;20043;-78
2023/04/26 13:41:35;;;;;;;3.78;1.60;;;;;;;;;;5105784;28;20518;-75
2023/04/26 13:44:07;;;;;;;3.60;1.60;;;;;;;;;;5105953;28;20043;-76
2023/04/26 13:46:38;;;;;;;7.10;1.92;;;;;;;;;;5105986;28;20514;-76
2023/04/26 13:49:09;;;;;;;8.85;2.55;;;;;;;;;;5105065;28;20050;-75
2023/04/26 13:51:40;;;;;;;3.92;1.90;;;;;;;;;;5106645;28;20051;-77
2023/04/26 13:54:12;;;;;;;3.33;1.90;;;;;;;;;;5106436;28;20048;-76
2023/04/26 13:56:43;;;;;;;3.88;1.90;;;;;;;;;;5105840;28;20062;-75
2023/04/26 13:59:12;;;;;;;12.40;6.88;;;;;;;;;;5105983;28;20043;-74
2023/04/26 14:01:43;;;;;;;2.55;1.88;;;;;;;;;;5105916;28;20071;-76
2023/04/26 14:04:14;;;;;;;4.68;2.40;;;;;;;;;;5106155;28;20061;-76
2023/04/26 14:06:45;;;;;;;8.15;2.42;;;;;;;;;;5105399;28;20113;-74
2023/04/26 14:09:17;;;;;;;13.10;3.20;;;;;;;;;;5105880;28;20043;-75
2023/04/26 14:11:47;;;;;;;4.47;2.20;;;;;;;;;;5106241;28;20422;-77
2023/04/26 14:14:37;;;;;;;10.13;2.55;;;;;;;;;;5105463;28;20046;-76
2023/04/26 14:17:07;;;;;;;2.22;1.90;;;;;;;;;;5104494;28;20510;-75
2023/04/26 14:19:37;;;;;;;2.38;1.90;;;;;;;;;;5105477;28;20050;-76
2023/04/26 14:22:11;;;;;;;3.33;2.50;;;;;;;;;;5105351;28;20039;-75
2023/04/26 14:24:42;;;;;;;4.78;2.63;;;;;;;;;;5105372;28;20048;-75
2023/04/26 14:27:12;;;;;;;4.97;2.45;;;;;;;;;;5104114;28;20058;-74
2023/04/26 14:29:43;;;;;;;10.20;2.65;;;;;;;;;;5105653;28;20473;-77
2023/04/26 14:32:13;;;;;;;5.00;3.08;;;;;;;;;;5104999;28;20051;-76
2023/04/26 14:34:44;;;;;;;4.57;3.13;;;;;;;;;;5105507;28;20066;-74
2023/04/26 14:37:16;;;;;;;11.45;3.92;;;;;;;;;;5105230;28;20058;-75
2023/04/26 14:39:48;;;;;;;8.40;3.60;;;;;;;;;;5105283;28;20051;-75
2023/04/26 14:42:18;;;;;;;11.45;5.32;;;;;;;;;;5105487;28;20051;-76
2023/04/26 14:44:48;;;;;;;16.15;5.22;;;;;;;;;;5105886;28;20394;-74
2023/04/26 14:47:18;;;;;;;8.02;6.65;;;;;;;;;;5105104;28;20490;-76
2023/04/26 14:49:49;;;;;;;11.57;7.18;;;;;;;;;;5104660;28;20055;-77
2023/04/26 14:52:19;;;;;;;18.45;8.00;;;;;;;;;;5105339;28;20044;-75
2023/04/26 14:54:50;;;;;;;6.80;6.13;;;;;;;;;;5105555;28;20048;-74
2023/04/26 14:57:21;;;;;;;9.32;5.97;;;;;;;;;;5105304;28;20058;-75
2023/04/26 14:59:51;;;;;;;11.60;6.55;;;;;;;;;;5106042;28;20051;-75
2023/04/26 15:02:22;;;;;;;6.82;6.13;;;;;;;;;;5108007;28;20044;-74
2023/04/26 15:04:53;;;;;;;9.65;5.40;;;;;;;;;;5109275;28;20414;-75
2023/04/26 15:07:23;;;;;;;8.60;4.90;;;;;;;;;;5109066;28;20040;-75
2023/04/26 15:10:00;;;;;;;16.13;5.28;;;;;;;;;;5109444;28;20051;-76